createdAt,value
2022-08-18T00:01:43.236Z,18.90
2022-08-18T00:04:34.973Z,18.90
2022-08-18T00:07:01.736Z,18.80
2022-08-18T00:09:32.490Z,18.70
2022-08-18T00:12:02.996Z,18.60
2022-08-18T00:14:31.336Z,18.60
2022-08-18T00:16:59.392Z,18.50
2022-08-18T00:19:47.619Z,18.50
2022-08-18T00:22:19.708Z,18.40
2022-08-18T00:24:50.131Z,18.40
2022-08-18T00:27:23.362Z,18.30
2022-08-18T00:29:53.406Z,18.20
2022-08-18T00:32:23.869Z,18.20
2022-08-18T00:34:52.305Z,18.10
2022-08-18T00:37:22.041Z,18.00
2022-08-18T00:39:53.420Z,18.00
2022-08-18T00:42:29.158Z,17.90
2022-08-18T00:45:02.775Z,17.80
2022-08-18T00:47:36.472Z,17.80
2022-08-18T00:50:15.200Z,17.90
2022-08-18T00:52:50.898Z,17.80
2022-08-18T00:55:21.248Z,17.80
2022-08-18T00:57:54.889Z,17.80
2022-08-18T01:00:23.136Z,17.80
2022-08-18T01:02:57.581Z,17.70
2022-08-18T01:05:33.843Z,17.80
2022-08-18T01:08:04.626Z,17.80
2022-08-18T01:10:35.187Z,17.80
2022-08-18T01:13:03.801Z,17.80
2022-08-18T01:15:32.868Z,17.80
2022-08-18T01:18:21.976Z,17.90
2022-08-18T01:21:16.276Z,17.90
2022-08-18T01:23:46.966Z,18.00
2022-08-18T01:26:16.829Z,18.10
2022-08-18T01:28:46.450Z,18.10
2022-08-18T01:31:32.757Z,18.20
2022-08-18T01:34:01.336Z,18.20
2022-08-18T01:36:30.291Z,18.30
2022-08-18T01:39:00.628Z,18.30
2022-08-18T01:41:31.004Z,18.30
2022-08-18T01:44:01.231Z,18.40
2022-08-18T01:46:31.718Z,18.40
2022-08-18T01:49:01.129Z,18.40
2022-08-18T01:51:36.634Z,18.50
2022-08-18T01:54:11.776Z,18.40
2022-08-18T01:56:40.756Z,18.50
2022-08-18T01:59:14.644Z,18.50
2022-08-18T02:01:50.549Z,18.60
2022-08-18T02:04:40.849Z,18.60
2022-08-18T02:07:11.621Z,18.60
2022-08-18T02:09:42.823Z,18.60
2022-08-18T02:12:11.926Z,18.60
2022-08-18T02:14:40.843Z,18.60
2022-08-18T02:17:11.260Z,18.70
2022-08-18T02:19:41.598Z,18.70
2022-08-18T02:22:11.333Z,18.60
2022-08-18T02:24:40.944Z,18.60
2022-08-18T02:27:10.826Z,18.60
2022-08-18T02:29:39.120Z,18.60
2022-08-18T02:32:07.806Z,18.60
2022-08-18T02:34:35.901Z,18.50
2022-08-18T02:37:04.422Z,18.50
2022-08-18T02:39:34.721Z,18.50
2022-08-18T02:42:04.911Z,18.40
2022-08-18T02:44:33.471Z,18.40
2022-08-18T02:47:01.790Z,18.30
2022-08-18T02:49:29.960Z,18.30
2022-08-18T02:51:58.062Z,18.30
2022-08-18T02:54:26.709Z,18.20
2022-08-18T02:56:57.156Z,18.20
2022-08-18T02:59:31.935Z,18.10
2022-08-18T03:02:01.701Z,18.00
2022-08-18T03:04:33.284Z,18.00
2022-08-18T03:07:03.854Z,18.00
2022-08-18T03:09:32.786Z,17.90
2022-08-18T03:12:01.237Z,17.80
2022-08-18T03:14:30.923Z,17.80
2022-08-18T03:16:59.794Z,17.70
2022-08-18T03:19:29.675Z,17.70
2022-08-18T03:22:03.098Z,17.60
2022-08-18T03:24:33.172Z,17.50
2022-08-18T03:27:02.573Z,17.50
2022-08-18T03:29:33.044Z,17.40
2022-08-18T03:32:02.118Z,17.30
2022-08-18T03:34:31.574Z,17.30
2022-08-18T03:36:59.584Z,17.20
2022-08-18T03:39:28.639Z,17.20
2022-08-18T03:42:00.960Z,17.10
2022-08-18T03:44:32.991Z,17.10
2022-08-18T03:47:02.994Z,17.10
2022-08-18T03:49:31.352Z,17.00
2022-08-18T03:52:00.982Z,17.00
2022-08-18T03:54:31.962Z,17.00
2022-08-18T03:57:00.566Z,16.90
2022-08-18T03:59:31.750Z,16.90
2022-08-18T04:02:04.674Z,16.80
2022-08-18T04:04:33.206Z,16.80
2022-08-18T04:07:04.712Z,16.70
2022-08-18T04:09:34.454Z,16.70
2022-08-18T04:12:10.373Z,16.70
2022-08-18T04:14:46.534Z,16.60
2022-08-18T04:17:16.096Z,16.60
2022-08-18T04:19:43.987Z,16.60
2022-08-18T04:22:17.157Z,16.70
2022-08-18T04:24:46.363Z,16.60
2022-08-18T04:27:14.544Z,16.60
2022-08-18T04:29:42.575Z,16.70
2022-08-18T04:32:10.628Z,16.70
2022-08-18T04:34:39.992Z,16.70
2022-08-18T04:37:09.650Z,16.80
2022-08-18T04:39:37.898Z,16.80
2022-08-18T04:42:06.363Z,16.90
2022-08-18T04:44:34.450Z,17.00
2022-08-18T04:47:02.849Z,17.10
2022-08-18T04:49:32.067Z,17.20
2022-08-18T04:52:36.865Z,17.20
2022-08-18T04:55:07.925Z,17.40
2022-08-18T04:57:35.999Z,17.40
2022-08-18T05:00:07.423Z,17.50
2022-08-18T05:02:35.633Z,17.60
2022-08-18T05:05:04.572Z,17.70
2022-08-18T05:07:34.437Z,17.70
2022-08-18T05:10:02.544Z,17.80
2022-08-18T05:12:30.732Z,17.80
2022-08-18T05:14:58.832Z,17.80
2022-08-18T05:17:29.090Z,17.90
2022-08-18T05:19:59.942Z,17.90
2022-08-18T05:22:31.794Z,17.90
2022-08-18T05:25:01.658Z,18.00
2022-08-18T05:27:33.969Z,18.00
2022-08-18T05:30:02.570Z,18.10
2022-08-18T05:32:47.998Z,18.20
2022-08-18T05:35:21.847Z,18.40
2022-08-18T05:38:02.018Z,18.50
2022-08-18T05:40:31.868Z,18.70
2022-08-18T05:43:01.316Z,18.80
2022-08-18T05:45:29.423Z,19.00
2022-08-18T05:48:01.185Z,19.00
2022-08-18T05:50:30.904Z,19.10
2022-08-18T05:53:02.163Z,19.20
2022-08-18T05:55:53.068Z,19.20
2022-08-18T05:58:32.879Z,19.30
2022-08-18T06:01:05.478Z,19.30
2022-08-18T06:03:45.488Z,19.40
2022-08-18T06:06:19.410Z,19.50
2022-08-18T06:08:57.239Z,19.70
2022-08-18T06:11:26.794Z,19.80
2022-08-18T06:13:59.111Z,20.00
2022-08-18T06:16:50.038Z,20.10
2022-08-18T06:19:39.025Z,20.30
2022-08-18T06:22:16.729Z,20.40
2022-08-18T06:24:52.606Z,20.60
2022-08-18T06:27:31.055Z,20.70
2022-08-18T06:30:07.050Z,20.90
2022-08-18T06:32:53.262Z,21.20
2022-08-18T06:35:30.850Z,21.50
2022-08-18T06:38:29.311Z,21.70
2022-08-18T06:41:03.974Z,21.80
2022-08-18T06:43:35.297Z,22.00
2022-08-18T06:46:09.093Z,22.20
2022-08-18T06:48:42.144Z,22.50
2022-08-18T06:51:13.570Z,22.70
2022-08-18T06:53:53.207Z,22.90
2022-08-18T06:56:26.013Z,23.10
2022-08-18T06:59:14.201Z,23.30
2022-08-18T07:01:43.093Z,23.50
2022-08-18T07:04:11.234Z,23.70
2022-08-18T07:06:39.308Z,23.90
2022-08-18T07:09:21.768Z,24.00
2022-08-18T07:12:06.615Z,24.20
2022-08-18T07:14:46.555Z,24.50
2022-08-18T07:17:22.170Z,24.60
2022-08-18T07:20:08.328Z,24.80
2022-08-18T07:22:55.152Z,24.90
2022-08-18T07:25:28.188Z,25.10
2022-08-18T07:27:57.177Z,25.40
2022-08-18T07:30:37.025Z,25.50
2022-08-18T07:33:14.660Z,25.80
2022-08-18T07:35:49.182Z,25.90
2022-08-18T07:38:42.083Z,26.10
2022-08-18T07:41:17.263Z,26.30
2022-08-18T07:44:00.583Z,26.70
2022-08-18T07:46:36.464Z,26.90
2022-08-18T07:49:06.388Z,27.10
2022-08-18T07:51:47.637Z,27.30
2022-08-18T07:54:49.536Z,27.50
2022-08-18T07:57:28.253Z,27.70
2022-08-18T08:00:23.132Z,28.00
2022-08-18T08:03:18.909Z,28.20
2022-08-18T08:05:54.252Z,28.40
2022-08-18T08:08:27.179Z,28.50
2022-08-18T08:11:06.162Z,28.50
2022-08-18T08:13:54.850Z,28.50
2022-08-18T08:16:36.220Z,28.60
2022-08-18T08:19:36.550Z,28.80
2022-08-18T08:22:16.195Z,29.00
2022-08-18T08:24:54.918Z,29.40
2022-08-18T08:27:28.423Z,29.50
2022-08-18T08:30:03.002Z,29.60
2022-08-18T08:32:34.665Z,29.80
2022-08-18T08:35:47.364Z,30.10
2022-08-18T08:38:36.681Z,30.40
2022-08-18T08:40:55.624Z,30.60
2022-08-18T08:43:30.874Z,30.80
2022-08-18T08:46:08.187Z,30.70
2022-08-18T08:48:42.366Z,30.60
2022-08-18T08:51:30.109Z,30.40
2022-08-18T08:54:03.443Z,30.70
2022-08-18T08:56:35.981Z,30.80
2022-08-18T08:59:07.813Z,30.90
2022-08-18T09:01:43.519Z,31.00
2022-08-18T09:04:24.471Z,31.20
2022-08-18T09:07:07.454Z,31.30
2022-08-18T09:09:56.164Z,31.40
2022-08-18T09:12:36.443Z,31.50
2022-08-18T09:15:38.138Z,31.40
2022-08-18T09:18:25.691Z,31.70
2022-08-18T09:21:07.162Z,32.00
2022-08-18T09:23:42.269Z,32.00
2022-08-18T09:26:40.438Z,31.80
2022-08-18T09:29:26.103Z,31.70
2022-08-18T09:32:39.820Z,31.50
2022-08-18T09:35:27.068Z,31.60
2022-08-18T09:38:20.497Z,31.90
2022-08-18T09:41:11.524Z,32.30
2022-08-18T09:43:53.325Z,32.50
2022-08-18T09:46:53.861Z,32.80
2022-08-18T09:52:59.193Z,32.90
2022-08-18T09:55:59.281Z,33.40
2022-08-18T09:58:50.324Z,33.80
2022-08-18T10:01:32.738Z,34.10
2022-08-18T10:04:30.557Z,34.20
2022-08-18T10:07:18.185Z,34.30
2022-08-18T10:10:03.405Z,34.40
2022-08-18T10:13:06.446Z,34.50
2022-08-18T10:15:42.390Z,34.60
2022-08-18T10:18:27.441Z,34.80
2022-08-18T10:21:04.800Z,34.80
2022-08-18T10:27:13.272Z,35.10
2022-08-18T10:29:52.041Z,35.30
2022-08-18T10:32:40.326Z,35.50
2022-08-18T10:35:52.159Z,35.90
2022-08-18T10:38:46.086Z,36.20
2022-08-18T10:41:30.627Z,36.30
2022-08-18T10:44:01.243Z,36.50
2022-08-18T10:46:39.614Z,36.70
2022-08-18T10:49:27.254Z,36.90
2022-08-18T10:52:37.953Z,37.20
2022-08-18T10:55:49.078Z,37.30
2022-08-18T10:58:38.169Z,37.30
2022-08-18T11:01:20.581Z,37.10
2022-08-18T11:04:14.039Z,37.30
2022-08-18T11:07:07.970Z,37.50
2022-08-18T11:09:36.949Z,37.70
2022-08-18T11:12:12.413Z,37.50
2022-08-18T11:15:22.623Z,37.50
2022-08-18T11:18:10.446Z,37.60
2022-08-18T11:20:43.255Z,37.90
2022-08-18T11:23:15.968Z,38.20
2022-08-18T11:25:45.787Z,38.40
2022-08-18T11:28:18.646Z,38.40
2022-08-18T11:30:49.603Z,38.60
2022-08-18T11:33:23.270Z,38.80
2022-08-18T11:35:58.501Z,39.00
2022-08-18T11:38:31.123Z,39.10
2022-08-18T11:41:14.228Z,39.60
2022-08-18T11:43:47.645Z,39.50
2022-08-18T11:46:28.014Z,39.50
2022-08-18T11:48:58.219Z,39.30
2022-08-18T11:51:33.508Z,38.80
2022-08-18T11:54:04.898Z,38.90
2022-08-18T11:56:35.726Z,39.30
2022-08-18T11:59:07.965Z,38.80
2022-08-18T12:01:48.586Z,38.20
2022-08-18T12:04:24.758Z,38.00
2022-08-18T12:07:02.185Z,37.70
2022-08-18T12:10:17.838Z,38.00
2022-08-18T12:12:32.551Z,38.50
2022-08-18T12:15:10.479Z,38.80
2022-08-18T12:17:52.233Z,38.90
2022-08-18T12:20:21.849Z,39.00
2022-08-18T12:22:56.653Z,39.30
2022-08-18T12:25:25.849Z,39.30
2022-08-18T12:27:54.147Z,39.60
2022-08-18T12:30:22.175Z,39.80
2022-08-18T12:32:55.502Z,40.00
2022-08-18T12:35:24.746Z,40.00
2022-08-18T12:40:45.531Z,40.10
2022-08-18T12:43:14.303Z,40.10
2022-08-18T12:45:42.961Z,40.20
2022-08-18T12:48:11.905Z,40.30
2022-08-18T12:50:54.570Z,40.40
2022-08-18T12:53:58.368Z,40.40
2022-08-18T12:56:37.549Z,40.50
2022-08-18T12:59:09.030Z,40.70
2022-08-18T13:01:39.909Z,40.80
2022-08-18T13:07:01.963Z,40.80
2022-08-18T13:09:53.223Z,40.90
2022-08-18T13:12:24.163Z,40.90
2022-08-18T13:14:58.178Z,41.00
2022-08-18T13:17:34.477Z,40.70
2022-08-18T13:20:06.547Z,40.40
2022-08-18T13:22:40.957Z,39.70
2022-08-18T13:25:32.164Z,39.50
2022-08-18T13:28:03.929Z,39.70
2022-08-18T13:30:36.097Z,39.90
2022-08-18T13:33:33.773Z,40.10
2022-08-18T13:35:54.792Z,40.10
2022-08-18T13:38:26.184Z,39.90
2022-08-18T13:41:00.480Z,39.50
2022-08-18T13:43:32.101Z,39.30
2022-08-18T13:46:01.375Z,39.10
2022-08-18T13:48:29.789Z,39.00
2022-08-18T13:51:05.466Z,38.80
2022-08-18T13:53:50.610Z,38.70
2022-08-18T13:56:20.850Z,38.50
2022-08-18T13:58:59.767Z,38.60
2022-08-18T14:01:51.604Z,38.80
2022-08-18T14:04:19.962Z,39.00
2022-08-18T14:06:56.165Z,39.00
2022-08-18T14:09:36.247Z,38.90
2022-08-18T14:12:22.535Z,38.70
2022-08-18T14:14:52.478Z,38.40
2022-08-18T14:17:34.820Z,38.50
2022-08-18T14:20:24.083Z,38.40
2022-08-18T14:23:22.825Z,38.30
2022-08-18T14:26:13.333Z,38.30
2022-08-18T14:29:11.305Z,38.20
2022-08-18T14:31:46.035Z,38.00
2022-08-18T14:34:15.431Z,37.90
2022-08-18T14:36:57.062Z,37.90
2022-08-18T14:39:27.606Z,37.80
2022-08-18T14:42:04.682Z,37.60
2022-08-18T14:44:34.671Z,37.40
2022-08-18T14:47:06.085Z,37.10
2022-08-18T14:49:35.632Z,37.00
2022-08-18T14:52:13.951Z,36.70
2022-08-18T14:54:46.300Z,36.60
2022-08-18T14:59:57.370Z,36.30
2022-08-18T15:02:27.055Z,36.10
2022-08-18T15:04:58.109Z,35.90
2022-08-18T15:07:26.380Z,35.60
2022-08-18T15:10:14.795Z,35.50
2022-08-18T15:12:43.590Z,35.40
2022-08-18T15:15:18.098Z,35.30
2022-08-18T15:18:22.496Z,35.30
2022-08-18T15:21:19.560Z,35.30
2022-08-18T15:24:20.716Z,35.10
2022-08-18T15:26:51.822Z,34.90
2022-08-18T15:29:28.012Z,34.80
2022-08-18T15:32:11.725Z,34.60
2022-08-18T15:34:52.661Z,34.40
2022-08-18T15:37:22.221Z,33.90
2022-08-18T15:40:30.195Z,33.50
2022-08-18T15:43:03.939Z,33.20
2022-08-18T15:45:37.665Z,32.90
2022-08-18T15:48:12.504Z,32.70
2022-08-18T15:50:42.852Z,32.40
2022-08-18T15:53:40.036Z,32.20
2022-08-18T15:56:16.028Z,31.90
2022-08-18T15:58:49.101Z,31.70
2022-08-18T16:01:33.075Z,31.20
2022-08-18T16:04:16.933Z,30.70
2022-08-18T16:06:50.922Z,29.40
2022-08-18T16:09:21.181Z,29.00
2022-08-18T16:11:50.304Z,28.40
2022-08-18T16:14:33.001Z,27.50
2022-08-18T16:17:23.670Z,27.00
2022-08-18T16:19:58.390Z,26.70
2022-08-18T16:22:28.075Z,26.30
2022-08-18T16:25:10.486Z,26.10
2022-08-18T16:27:41.768Z,25.90
2022-08-18T16:30:15.236Z,25.60
2022-08-18T16:32:43.547Z,25.40
2022-08-18T16:35:12.368Z,25.20
2022-08-18T16:37:58.237Z,25.00
2022-08-18T16:40:28.001Z,24.80
2022-08-18T16:43:04.913Z,24.50
2022-08-18T16:45:34.547Z,24.40
2022-08-18T16:48:02.899Z,24.30
2022-08-18T16:50:31.201Z,24.20
2022-08-18T16:53:40.244Z,24.10
2022-08-18T16:56:16.368Z,23.80
2022-08-18T16:59:01.994Z,23.60
2022-08-18T17:01:48.958Z,23.40
2022-08-18T17:04:22.433Z,23.20
2022-08-18T17:06:52.996Z,23.10
2022-08-18T17:09:23.383Z,23.00
2022-08-18T17:12:09.803Z,22.80
2022-08-18T17:14:39.197Z,22.80
2022-08-18T17:17:07.655Z,22.70
2022-08-18T17:19:44.006Z,22.70
2022-08-18T17:22:13.492Z,22.60
2022-08-18T17:24:56.252Z,22.50
2022-08-18T17:27:46.138Z,22.40
2022-08-18T17:30:21.470Z,22.30
2022-08-18T17:32:58.041Z,22.20
2022-08-18T17:35:35.727Z,22.10
2022-08-18T17:38:23.315Z,22.00
2022-08-18T17:40:55.859Z,21.90
2022-08-18T17:43:29.127Z,21.80
2022-08-18T17:46:01.256Z,21.70
2022-08-18T17:48:33.468Z,21.60
2022-08-18T17:51:25.479Z,21.50
2022-08-18T17:53:53.880Z,21.50
2022-08-18T17:56:41.341Z,21.40
2022-08-18T17:59:46.144Z,21.30
2022-08-18T18:02:29.460Z,21.30
2022-08-18T18:04:59.703Z,21.20
2022-08-18T18:07:30.869Z,21.10
2022-08-18T18:10:01.583Z,21.00
2022-08-18T18:12:32.506Z,20.90
2022-08-18T18:15:31.466Z,20.90
2022-08-18T18:18:35.353Z,20.80
2022-08-18T18:21:07.215Z,20.70
2022-08-18T18:23:41.313Z,20.60
2022-08-18T18:26:28.314Z,20.60
2022-08-18T18:29:20.207Z,20.60
2022-08-18T18:31:58.479Z,20.40
2022-08-18T18:34:59.715Z,20.40
2022-08-18T18:37:32.395Z,20.30
2022-08-18T18:40:04.008Z,20.30
2022-08-18T18:42:38.014Z,20.20
2022-08-18T18:45:13.744Z,20.10
2022-08-18T18:47:50.345Z,20.00
2022-08-18T18:50:37.517Z,20.00
2022-08-18T18:53:18.805Z,20.00
2022-08-18T18:56:09.170Z,19.90
2022-08-18T18:59:05.705Z,19.90
2022-08-18T19:01:43.721Z,19.90
2022-08-18T19:04:19.260Z,19.80
2022-08-18T19:06:57.052Z,19.70
2022-08-18T19:09:36.984Z,19.70
2022-08-18T19:12:16.083Z,19.60
2022-08-18T19:14:59.539Z,19.60
2022-08-18T19:17:39.076Z,19.50
2022-08-18T19:20:12.255Z,19.50
2022-08-18T19:23:04.952Z,19.40
2022-08-18T19:25:38.453Z,19.30
2022-08-18T19:28:13.186Z,19.30
2022-08-18T19:30:51.829Z,19.30
2022-08-18T19:33:41.237Z,19.20
2022-08-18T19:36:33.556Z,19.20
2022-08-18T19:39:12.676Z,19.20
2022-08-18T19:41:49.348Z,19.20
2022-08-18T19:45:20.591Z,19.10
2022-08-18T19:48:14.025Z,19.00
2022-08-18T19:50:50.383Z,18.90
2022-08-18T19:53:40.215Z,18.90
2022-08-18T19:56:29.270Z,18.90
2022-08-18T19:59:21.638Z,18.80
2022-08-18T20:02:03.117Z,18.80
2022-08-18T20:04:48.925Z,18.70
2022-08-18T20:08:03.940Z,18.70
2022-08-18T20:11:02.990Z,18.60
2022-08-18T20:13:49.160Z,18.60
2022-08-18T20:16:43.483Z,18.60
2022-08-18T20:19:43.970Z,18.60
2022-08-18T20:22:29.268Z,18.50
2022-08-18T20:24:59.579Z,18.50
2022-08-18T20:27:44.567Z,18.40
2022-08-18T20:30:49.936Z,18.40
2022-08-18T20:33:37.342Z,18.40
2022-08-18T20:36:28.472Z,18.30
2022-08-18T20:39:12.926Z,18.20
2022-08-18T20:41:50.565Z,18.10
2022-08-18T20:45:06.336Z,18.10
2022-08-18T20:48:09.589Z,18.10
2022-08-18T20:51:25.078Z,18.10
2022-08-18T20:54:37.809Z,18.10
2022-08-18T20:57:13.568Z,18.10
2022-08-18T20:59:47.529Z,18.10
2022-08-18T21:02:48.769Z,18.00
2022-08-18T21:05:29.588Z,18.00
2022-08-18T21:08:20.500Z,18.00
2022-08-18T21:10:55.969Z,18.00
2022-08-18T21:13:38.349Z,17.90
2022-08-18T21:16:10.716Z,17.90
2022-08-18T21:18:40.210Z,17.90
2022-08-18T21:21:29.252Z,17.90
2022-08-18T21:23:59.767Z,17.90
2022-08-18T21:26:44.958Z,17.80
2022-08-18T21:29:14.329Z,17.70
2022-08-18T21:31:45.672Z,17.70
2022-08-18T21:34:18.291Z,17.70
2022-08-18T21:36:54.172Z,17.60
2022-08-18T21:39:22.906Z,17.60
2022-08-18T21:42:04.491Z,17.60
2022-08-18T21:44:46.443Z,17.50
2022-08-18T21:47:22.027Z,17.40
2022-08-18T21:49:59.925Z,17.40
2022-08-18T21:52:50.497Z,17.40
2022-08-18T21:55:34.088Z,17.30
2022-08-18T21:58:06.345Z,17.20
2022-08-18T22:00:37.263Z,17.10
2022-08-18T22:03:23.621Z,17.00
2022-08-18T22:06:03.764Z,16.90
2022-08-18T22:08:59.815Z,16.90
2022-08-18T22:12:00.511Z,16.80
2022-08-18T22:14:54.842Z,16.70
2022-08-18T22:17:35.154Z,16.70
2022-08-18T22:20:21.607Z,16.70
2022-08-18T22:23:08.910Z,16.70
2022-08-18T22:25:38.581Z,16.70
2022-08-18T22:28:06.762Z,16.70
2022-08-18T22:30:35.221Z,16.70
2022-08-18T22:33:08.963Z,16.70
2022-08-18T22:35:40.337Z,16.70
2022-08-18T22:41:26.628Z,16.70
2022-08-18T22:43:55.475Z,16.60
2022-08-18T22:46:25.284Z,16.60
2022-08-18T22:48:55.892Z,16.60
2022-08-18T22:51:42.954Z,16.60
2022-08-18T22:54:15.381Z,16.50
2022-08-18T22:57:01.253Z,16.50
2022-08-18T22:59:37.541Z,16.50
2022-08-18T23:02:26.295Z,16.40
2022-08-18T23:04:54.316Z,16.40
2022-08-18T23:07:23.701Z,16.40
2022-08-18T23:09:59.212Z,16.40
2022-08-18T23:15:48.104Z,16.30
2022-08-18T23:18:21.501Z,16.20
2022-08-18T23:20:53.266Z,16.20
2022-08-18T23:23:28.158Z,16.20
2022-08-18T23:26:16.236Z,16.20
2022-08-18T23:29:05.256Z,16.20
2022-08-18T23:31:49.630Z,16.20
2022-08-18T23:34:19.326Z,16.20
2022-08-18T23:36:52.745Z,16.20
2022-08-18T23:39:21.724Z,16.20
2022-08-18T23:41:50.427Z,16.10
2022-08-18T23:44:18.714Z,16.20
2022-08-18T23:46:48.198Z,16.20
2022-08-18T23:49:16.484Z,16.10
2022-08-18T23:51:48.869Z,16.10
2022-08-18T23:54:19.493Z,16.10
2022-08-18T23:56:49.094Z,16.10
2022-08-18T23:59:32.506Z,16.10
